Vibrant Curiosity — 2BQE2 — position and weather

sailwx.info

Track history (hours):
 
Tides and Currents Weather Stations Pressure Air Temp Water Temp Dewpoint Dewpoint Depression Visibility Wind Speed Wind Dir Waves Ship Positions

Vibrant Curiosity

Last reported at 2015-Feb-27 04:31 UTC. Time now 2015-Mar-05 22:31 UTC.
Position N 18°32' W 064°21'.

Length 85 m; draft 4 m.

Type: Pleasure craft. MMSI: 235068366.

Date/timePositionNaut miles runAvg speedWind from/ knotsBaromVisibWave heightAir tempDewpointWater temp
2015-Feb-27 04:31N 18°32' W 064°21'17 0.4
2015-Feb-25 11:32N 18°28' W 064°39'6 5.8
2015-Feb-25 10:29N 18°23' W 064°43'0 0.1
2015-Feb-25 09:31N 18°23' W 064°43'0 0.0
2015-Feb-25 08:25N 18°23' W 064°43'0 0.0
2015-Feb-25 07:31N 18°23' W 064°43'0 0.0
2015-Feb-25 06:31N 18°23' W 064°43'0 0.0
2015-Feb-25 05:32N 18°23' W 064°43'0 0.1
2015-Feb-25 04:32N 18°23' W 064°43'0 0.0
2015-Feb-25 03:28N 18°23' W 064°43'0 0.0
2015-Feb-25 02:31N 18°23' W 064°43'0 0.0
2015-Feb-25 01:22N 18°23' W 064°43'0 0.0
2015-Feb-25 00:32N 18°23' W 064°43'0 0.0
2015-Feb-24 23:26N 18°23' W 064°43'0 0.0
2015-Feb-24 22:32N 18°23' W 064°43'0 0.1
2015-Feb-24 21:19N 18°23' W 064°43'0 0.0
2015-Feb-24 20:25N 18°23' W 064°43'0 0.0
2015-Feb-24 19:31N 18°23' W 064°43'0 0.0
2015-Feb-24 18:31N 18°23' W 064°43'0 0.1
2015-Feb-24 17:25N 18°23' W 064°43'0 0.0
2015-Feb-24 16:31N 18°23' W 064°43'0 0.0
2015-Feb-24 15:31N 18°23' W 064°43'0 0.0
2015-Feb-24 14:31N 18°23' W 064°43'0 0.0
2015-Feb-24 13:31N 18°23' W 064°43'0 0.0
2015-Feb-24 12:25N 18°23' W 064°43'0 0.0
2015-Feb-24 11:25N 18°23' W 064°43'0 0.0
2015-Feb-24 10:31N 18°23' W 064°43'0 0.0
2015-Feb-24 09:25N 18°23' W 064°43'0 0.0
2015-Feb-24 08:31N 18°23' W 064°43'0 0.0
2015-Feb-24 07:31N 18°23' W 064°43'0 0.0
2015-Feb-24 06:31N 18°23' W 064°43'0 0.0
2015-Feb-24 05:31N 18°23' W 064°43'0 0.1
2015-Feb-24 04:28N 18°23' W 064°43'0 0.0
2015-Feb-24 03:31N 18°23' W 064°43'0 0.0
2015-Feb-24 02:31N 18°23' W 064°43'0 0.0
2015-Feb-24 01:31N 18°23' W 064°43'0 0.0
2015-Feb-24 00:31N 18°23' W 064°43'0 0.0
2015-Feb-23 23:28N 18°23' W 064°43'0 0.0
2015-Feb-23 22:19N 18°23' W 064°43'0 0.1
2015-Feb-23 21:31N 18°23' W 064°43'0 0.0
2015-Feb-23 20:31N 18°23' W 064°43'0 0.0
2015-Feb-23 19:28N 18°23' W 064°43'0 0.0
2015-Feb-23 18:31N 18°23' W 064°43'0 0.0
2015-Feb-23 17:07N 18°23' W 064°43'0 0.0
2015-Feb-23 16:13N 18°23' W 064°43'0 0.0
2015-Feb-23 15:25N 18°23' W 064°43'0 0.0
2015-Feb-23 14:31N 18°23' W 064°43'0 0.2
2015-Feb-23 13:30N 18°23' W 064°43'0 0.0
2015-Feb-23 12:24N 18°23' W 064°43'2 2.9
2015-Feb-23 11:33N 18°22' W 064°41'6 0.5
2015-Feb-22 23:18N 18°21' W 064°35'0 0.0
2015-Feb-22 21:33N 18°21' W 064°35'0 0.0
2015-Feb-22 20:33N 18°21' W 064°35'0 0.0
2015-Feb-22 19:33N 18°21' W 064°35'0 0.0
2015-Feb-21 22:33N 18°21' W 064°35'0 0.0
2015-Feb-21 21:32N 18°21' W 064°35'0 0.1
2015-Feb-21 20:34N 18°21' W 064°35'0 0.0
2015-Feb-21 19:34N 18°21' W 064°35'0 0.0
2015-Feb-21 18:34N 18°21' W 064°35'0 0.0
2015-Feb-21 17:34N 18°21' W 064°35'2 1.0
2015-Feb-21 15:33N 18°23' W 064°34'7 3.3
2015-Feb-21 13:17N 18°26' W 064°27'0 0.0
2015-Feb-21 12:33N 18°26' W 064°27'3 2.6
2015-Feb-21 11:33N 18°29' W 064°26'  
Track history (hours):
 
Tides and Currents Weather Stations Pressure Air Temp Water Temp Dewpoint Dewpoint Depression Visibility Wind Speed Wind Dir Waves Ship Positions

Vibrant Curiosity

Last reported at 2015-Feb-27 04:31 UTC. Time now 2015-Mar-05 22:31 UTC.
Position N 18°32' W 064°21'.

Length 85 m; draft 4 m.

Type: Pleasure craft. MMSI: 235068366.

Date/timePositionNaut miles runAvg speedWind from/ knotsBaromVisibWave heightAir tempDewpointWater temp
2015-Feb-27 04:31N 18°32' W 064°21'17 0.4
2015-Feb-25 11:32N 18°28' W 064°39'6 5.8
2015-Feb-25 10:29N 18°23' W 064°43'0 0.1
2015-Feb-25 09:31N 18°23' W 064°43'0 0.0
2015-Feb-25 08:25N 18°23' W 064°43'0 0.0
2015-Feb-25 07:31N 18°23' W 064°43'0 0.0
2015-Feb-25 06:31N 18°23' W 064°43'0 0.0
2015-Feb-25 05:32N 18°23' W 064°43'0 0.1
2015-Feb-25 04:32N 18°23' W 064°43'0 0.0
2015-Feb-25 03:28N 18°23' W 064°43'0 0.0
2015-Feb-25 02:31N 18°23' W 064°43'0 0.0
2015-Feb-25 01:22N 18°23' W 064°43'0 0.0
2015-Feb-25 00:32N 18°23' W 064°43'0 0.0
2015-Feb-24 23:26N 18°23' W 064°43'0 0.0
2015-Feb-24 22:32N 18°23' W 064°43'0 0.1
2015-Feb-24 21:19N 18°23' W 064°43'0 0.0
2015-Feb-24 20:25N 18°23' W 064°43'0 0.0
2015-Feb-24 19:31N 18°23' W 064°43'0 0.0
2015-Feb-24 18:31N 18°23' W 064°43'0 0.1
2015-Feb-24 17:25N 18°23' W 064°43'0 0.0
2015-Feb-24 16:31N 18°23' W 064°43'0 0.0
2015-Feb-24 15:31N 18°23' W 064°43'0 0.0
2015-Feb-24 14:31N 18°23' W 064°43'0 0.0
2015-Feb-24 13:31N 18°23' W 064°43'0 0.0
2015-Feb-24 12:25N 18°23' W 064°43'0 0.0
2015-Feb-24 11:25N 18°23' W 064°43'0 0.0
2015-Feb-24 10:31N 18°23' W 064°43'0 0.0
2015-Feb-24 09:25N 18°23' W 064°43'0 0.0
2015-Feb-24 08:31N 18°23' W 064°43'0 0.0
2015-Feb-24 07:31N 18°23' W 064°43'0 0.0
2015-Feb-24 06:31N 18°23' W 064°43'0 0.0
2015-Feb-24 05:31N 18°23' W 064°43'0 0.1
2015-Feb-24 04:28N 18°23' W 064°43'0 0.0
2015-Feb-24 03:31N 18°23' W 064°43'0 0.0
2015-Feb-24 02:31N 18°23' W 064°43'0 0.0
2015-Feb-24 01:31N 18°23' W 064°43'0 0.0
2015-Feb-24 00:31N 18°23' W 064°43'0 0.0
2015-Feb-23 23:28N 18°23' W 064°43'0 0.0
2015-Feb-23 22:19N 18°23' W 064°43'0 0.1
2015-Feb-23 21:31N 18°23' W 064°43'0 0.0
2015-Feb-23 20:31N 18°23' W 064°43'0 0.0
2015-Feb-23 19:28N 18°23' W 064°43'0 0.0
2015-Feb-23 18:31N 18°23' W 064°43'0 0.0
2015-Feb-23 17:07N 18°23' W 064°43'0 0.0
2015-Feb-23 16:13N 18°23' W 064°43'0 0.0
2015-Feb-23 15:25N 18°23' W 064°43'0 0.0
2015-Feb-23 14:31N 18°23' W 064°43'0 0.2
2015-Feb-23 13:30N 18°23' W 064°43'0 0.0
2015-Feb-23 12:24N 18°23' W 064°43'2 2.9
2015-Feb-23 11:33N 18°22' W 064°41'6 0.5
2015-Feb-22 23:18N 18°21' W 064°35'0 0.0
2015-Feb-22 21:33N 18°21' W 064°35'0 0.0
2015-Feb-22 20:33N 18°21' W 064°35'0 0.0
2015-Feb-22 19:33N 18°21' W 064°35'0 0.0
2015-Feb-21 22:33N 18°21' W 064°35'0 0.0
2015-Feb-21 21:32N 18°21' W 064°35'0 0.1
2015-Feb-21 20:34N 18°21' W 064°35'0 0.0
2015-Feb-21 19:34N 18°21' W 064°35'0 0.0
2015-Feb-21 18:34N 18°21' W 064°35'0 0.0
2015-Feb-21 17:34N 18°21' W 064°35'2 1.0
2015-Feb-21 15:33N 18°23' W 064°34'7 3.3
2015-Feb-21 13:17N 18°26' W 064°27'0 0.0
2015-Feb-21 12:33N 18°26' W 064°27'3 2.6
2015-Feb-21 11:33N 18°29' W 064°26'  

Dump ship's entire track history